Flight Track Log - Related Links

Times and Time Zones

All times are in EST time to prevent confusion due to time zone crossing. See the SKW5550 flight status page for this flight to view local times or setup timezone preferences in your user account.

Time Position Orientation Groundspeed Altitude Reporting Facility
EST Latitude Longitude Course Direction KTS MPH feet Rate Location/Type
Wed 08:51:39 AM 44.5056 -109.0506 158° South 133 153 6,300  Level Salt Lake Center
Wed 08:52:40 AM 44.4514 -109.0344 168° South 294 338 8,200 1,934 Climbing Salt Lake Center
Wed 08:53:00 AM 44.3227 -108.8222 157° South  Level Estimated
Wed 08:53:40 AM 44.4731 -108.9489 70° East 287 330 10,200  Level Salt Lake Center
Wed 08:54:00 AM 44.2117 -108.7506 155° Southeast  Level FlightAware Approximate
Wed 08:54:41 AM 44.5400 -108.9283 12° North 289 333 13,100  Level Salt Lake Center
Wed 08:55:00 AM 44.1130 -108.6500 157° South  Level Estimated
Wed 08:55:41 AM 44.4928 -108.8381 126° Southeast 321 369 15,400  Level Salt Lake Center
Wed 08:56:00 AM 43.9994 -108.5874 158° South  Level FlightAware Approximate
Wed 08:56:42 AM 44.3942 -108.8300 177° South 357 411 17,600  Level Salt Lake Center
Wed 08:57:43 AM 44.2964 -108.7764 159° South 375 432 19,100 1,438 Climbing Salt Lake Center
Wed 08:58:43 AM 44.1972 -108.7217 158° South 382 440 20,500 1,537 Climbing Salt Lake Center
Wed 08:59:44 AM 44.0764 -108.6514 157° South 389 448 22,200 1,426 Climbing Salt Lake Center
Wed 09:00:45 AM 43.9742 -108.5931 158° South 397 457 23,400 1,289 Climbing Salt Lake Center
Wed 09:01:45 AM 43.8692 -108.5336 158° South 406 467 24,800 1,190 Climbing Salt Lake Center
Wed 09:02:46 AM 43.7703 -108.4436 147° Southeast 431 496 25,800 984 Climbing Salt Lake Center
Wed 09:03:47 AM 43.6731 -108.3486 145° Southeast 431 496 26,800 992 Climbing Salt Lake Center
Wed 09:04:47 AM 43.5731 -108.2489 144° Southeast 443 510 27,800 992 Climbing Salt Lake Center
Wed 09:05:48 AM 43.4717 -108.1506 145° Southeast 447 514 28,800 984 Climbing Salt Lake Center
Wed 09:06:49 AM 43.3706 -108.0497 144° Southeast 450 518 29,800 984 Climbing Salt Lake Center
Wed 09:07:50 AM 43.2683 -107.9503 145° Southeast 452 520 30,800 595 Climbing Salt Lake Center
Wed 09:08:50 AM 43.1647 -107.8494 145° Southeast 457 526 31,000 99 Climbing Salt Lake Center
Wed 09:09:51 AM 43.0556 -107.7453 145° Southeast 476 548 31,000  Level Salt Lake Center
Wed 09:10:52 AM 42.9253 -107.6178 144° Southeast 495 570 31,000  Level Salt Lake Center
Wed 09:11:53 AM 42.8164 -107.5117 144° Southeast 500 575 31,000  Level Salt Lake Center
Wed 09:12:54 AM 42.7039 -107.4053 145° Southeast 509 586 31,000  Level Salt Lake Center
Wed 09:13:54 AM 42.5742 -107.2803 145° Southeast 512 589 31,000  Level Salt Lake Center
Wed 09:14:55 AM 42.4622 -107.1736 145° Southeast 513 590 31,000  Level Salt Lake Center
Wed 09:15:56 AM 42.3494 -107.0653 145° Southeast 516 594 31,000  Level Salt Lake Center
Wed 09:16:57 AM 42.2175 -106.9392 145° Southeast 519 597 31,000  Level Salt Lake Center
Wed 09:17:58 AM 42.1061 -106.8322 145° Southeast 515 593 31,000  Level Salt Lake Center
Wed 09:18:59 AM 41.9950 -106.7269 145° Southeast 511 588 31,000  Level Salt Lake Center
Wed 09:20:00 AM 41.8714 -106.6111 145° Southeast 512 589 31,000  Level Salt Lake Center
Wed 09:21:01 AM 41.7619 -106.5067 145° Southeast 508 585 31,000  Level Salt Lake Center
Wed 09:22:02 AM 41.6325 -106.3850 145° Southeast 509 586 31,000  Level Salt Lake Center
Wed 09:23:31 AM 41.4644 -106.2275 145° Southeast 512 589 31,000  Level Denver Center
Wed 09:24:32 AM 41.3544 -106.1264 145° Southeast 505 581 31,000 -148 Level Denver Center
Wed 09:25:33 AM 41.2239 -106.0050 145° Southeast 511 588 30,700 -984 Descending Denver Center
Wed 09:26:34 AM 41.1119 -105.9028 145° Southeast 512 589 29,000 -1,636 Descending Denver Center
Wed 09:27:34 AM 41.0078 -105.8072 145° Southeast 504 580 27,400 -1,785 Descending Denver Center
Wed 09:28:35 AM 40.8714 -105.6836 146° Southeast 499 574 25,400 -1,820 Descending Denver Center
Wed 09:29:36 AM 40.7603 -105.5825 145° Southeast 489 563 23,700 -1,525 Descending Denver Center
Wed 09:30:37 AM 40.6533 -105.4847 145° Southeast 475 547 22,300 -1,475 Descending Denver Center
Wed 09:31:38 AM 40.5750 -105.3794 134° Southeast 414 476 20,700 -1,525 Descending Denver Center
Wed 09:32:39 AM 40.5092 -105.2675 128° Southeast 389 448 19,200 -1,525 Descending Denver Center
Wed 09:33:40 AM 40.4656 -105.1383 114° Southeast 370 426 17,600 -1,525 Descending Denver Center
Wed 09:34:41 AM 40.4319 -105.0222 111° Southeast 343 395 16,100 -1,328 Descending Denver Center
Wed 09:35:42 AM 40.4008 -104.9128 110° East 325 374 14,900 -1,131 Descending Denver Center
Wed 09:36:43 AM 40.3547 -104.8308 126° Southeast 292 336 13,800 -1,230 Descending Denver Center
Wed 09:37:44 AM 40.2800 -104.7803 153° Southeast 301 346 12,400 -1,377 Descending Denver Center
Wed 09:38:45 AM 40.2019 -104.7256 152° Southeast 295 339 11,000 -1,279 Descending Denver Center
Wed 09:39:46 AM 40.1261 -104.6939 162° South 285 328 9,800 -1,230 Descending Denver Center
Wed 09:40:47 AM 40.0536 -104.6944 180° South 262 302 8,500 -984 Descending Denver Center
Wed 09:41:48 AM 39.9939 -104.6956 181° South 211 243 7,800 -984 Descending Denver Center
Wed 09:42:49 AM 39.9481 -104.6956 180° South 170 196 6,500 -1,082 Descending Denver Center
Wed 09:43:50 AM 39.9050 -104.6958 180° South 148 170 5,600 -537 Descending Denver Center
Wed 09:44:52 AM 39.8753 -104.6961 180° South 117 135 5,400 -194 Descending Denver Center

Login

Don't have an account? Register now (free) for customized features, flight alerts, and more!